Time;durP1;ratioP1;P1;durP2;ratioP2;P2;SDS_P1;SDS_P2;PMS_P1;PMS_P2;Temp;Humidity;BMP_temperature;BMP_pressure;BME280_temperature;BME280_humidity;BME280_pressure;Samples;Min_cycle;Max_cycle;Signal;HPM_P1;HPM_P2
2023/08/17 00:10:04;;;;;;;5.20;2.57;;;;;;;21.98;67.20;100442.91;30602890;28;97647;-75
2023/08/17 00:25:05;;;;;;;3.10;2.13;;;;;;;21.92;67.99;100468.25;30601260;28;97589;-75
2023/08/17 00:40:06;;;;;;;3.90;2.63;;;;;;;22.13;67.54;100596.22;30600166;28;98203;-75
2023/08/17 00:55:07;;;;;;;5.33;1.93;;;;;;;20.50;68.26;100635.84;30598404;28;96781;-75
2023/08/17 01:10:08;;;;;;;3.00;2.03;;;;;;;20.54;67.99;100563.97;30596944;28;97353;-75
2023/08/17 01:25:09;;;;;;;6.23;3.30;;;;;;;20.23;68.93;100536.03;30593520;28;100517;-74
2023/08/17 01:40:12;;;;;;;4.50;2.80;;;;;;;20.23;70.16;100460.31;30609858;28;98562;-75
2023/08/17 01:55:12;;;;;;;4.10;2.80;;;;;;;20.00;70.79;100457.44;30616421;28;97358;-75
2023/08/17 02:10:13;;;;;;;3.87;2.60;;;;;;;19.97;71.78;100436.28;30613985;28;102670;-75
2023/08/17 02:25:13;;;;;;;6.80;2.97;;;;;;;19.73;72.30;100438.81;30612527;28;96950;-75
2023/08/17 02:40:13;;;;;;;7.45;3.33;;;;;;;19.49;72.89;100427.00;30610959;28;97243;-74
2023/08/17 02:55:14;;;;;;;4.95;2.65;;;;;;;19.22;73.04;100433.50;30609054;28;97196;-74
2023/08/17 03:10:14;;;;;;;5.93;2.63;;;;;;;18.93;73.99;100452.00;30605587;28;104120;-75
2023/08/17 03:25:14;;;;;;;3.63;2.40;;;;;;;18.81;74.53;100459.13;30606174;28;97591;-74
2023/08/17 03:40:15;;;;;;;5.35;3.10;;;;;;;18.55;75.24;100487.94;30605888;28;97408;-75
2023/08/17 03:55:15;;;;;;;6.22;2.83;;;;;;;18.67;75.72;100495.34;30601989;28;96803;-73
2023/08/17 04:10:15;;;;;;;6.72;3.22;;;;;;;18.88;76.38;100505.81;30598090;28;97452;-74
2023/08/17 04:25:16;;;;;;;8.32;3.80;;;;;;;18.87;76.53;100512.22;30593849;28;100210;-74
2023/08/17 04:40:16;;;;;;;6.55;3.50;;;;;;;19.13;76.51;100552.81;30594953;28;98622;-74
2023/08/17 04:55:17;;;;;;;7.88;5.40;;;;;;;19.11;76.60;100571.94;30594816;28;103534;-75
2023/08/17 05:10:17;;;;;;;7.55;3.92;;;;;;;19.34;77.10;100576.78;30593082;28;98357;-74
2023/08/17 05:25:17;;;;;;;5.88;3.50;;;;;;;20.00;76.87;100560.22;30593660;28;97141;-72
2023/08/17 05:40:18;;;;;;;5.63;3.57;;;;;;;20.58;75.87;100580.59;30587998;28;107917;-71
2023/08/17 05:55:18;;;;;;;6.10;3.27;;;;;;;21.29;75.14;100562.75;30584945;28;97300;-69
2023/08/17 06:10:20;;;;;;;6.23;3.13;;;;;;;21.88;73.53;100555.75;30587252;28;97167;-78
2023/08/17 06:25:20;;;;;;;10.40;4.07;;;;;;;22.13;71.80;100556.34;30597630;28;97156;-74
2023/08/17 06:40:21;;;;;;;4.15;2.50;;;;;;;22.38;70.17;100568.81;30605792;28;96688;-71
2023/08/17 06:55:21;;;;;;;5.32;2.92;;;;;;;22.78;67.83;100588.88;30604252;28;96780;-69
2023/08/17 07:10:21;;;;;;;;;;;;;;;22.99;67.61;100580.06;30603255;28;97368;-72
2023/08/17 07:25:21;;;;;;;8.43;4.00;;;;;;;24.03;65.87;100595.38;30601995;28;97214;-69
2023/08/17 07:40:22;;;;;;;7.90;3.17;;;;;;;25.29;63.06;100590.91;30595890;28;112635;-70
2023/08/17 07:55:23;;;;;;;4.88;2.78;;;;;;;26.57;59.24;100576.44;30600231;28;97522;-73
2023/08/17 08:10:23;;;;;;;5.15;2.60;;;;;;;27.20;55.59;100567.31;30600030;28;97681;-72
2023/08/17 08:25:23;;;;;;;4.10;2.38;;;;;;;29.10;51.69;100574.19;30597809;28;99345;-68
2023/08/17 08:40:28;;;;;;;2.87;1.77;;;;;;;31.12;45.94;100576.38;30595333;28;97489;-71
2023/08/17 08:55:38;;;;;;;3.80;2.00;;;;;;;33.49;40.58;100566.09;30595588;28;97505;-69
2023/08/17 09:10:39;;;;;;;5.87;2.37;;;;;;;34.71;36.78;100570.41;30591877;28;97738;-71
2023/08/17 09:25:44;;;;;;;4.68;2.03;;;;;;;35.26;35.24;100563.41;30592963;28;97430;-70
2023/08/17 09:40:45;;;;;;;4.37;1.83;;;;;;;45.22;23.01;100564.88;30591675;28;96834;-67
2023/08/17 09:55:46;;;;;;;4.43;1.90;;;;;;;45.34;21.18;100541.16;30597516;28;97309;-71
2023/08/17 10:10:46;;;;;;;4.80;2.08;;;;;;;41.18;25.42;100531.88;30609963;28;97310;-69
2023/08/17 10:25:48;;;;;;;6.00;2.60;;;;;;;36.78;29.77;100519.63;30607832;28;97480;-69
2023/08/17 10:41:09;;;;;;;3.83;2.27;;;;;;;35.39;33.68;100508.97;30605022;28;97175;-71
2023/08/17 10:56:14;;;;;;;2.80;2.40;;;;;;;34.50;34.21;100515.75;30606564;28;97190;-75
2023/08/17 11:11:14;;;;;;;5.97;2.53;;;;;;;34.67;33.98;100489.22;30604399;28;97381;-70
2023/08/17 11:26:18;;;;;;;4.05;2.05;;;;;;;34.20;34.24;100501.69;30600539;28;106279;-72
2023/08/17 11:41:19;;;;;;;3.50;2.50;;;;;;;34.60;34.27;100484.16;30600610;28;97402;-69
2023/08/17 11:56:20;;;;;;;4.82;2.60;;;;;;;34.67;33.56;100491.97;30601056;28;97168;-72
2023/08/17 12:11:24;;;;;;;6.53;2.63;;;;;;;34.69;34.14;100487.75;30600660;28;97411;-71
2023/08/17 12:26:24;;;;;;;4.73;2.47;;;;;;;35.11;33.75;100475.34;30595162;28;97318;-79
2023/08/17 12:41:25;;;;;;;5.25;3.00;;;;;;;35.21;33.17;100450.88;30588658;28;97113;-72
2023/08/17 12:56:25;;;;;;;6.35;3.10;;;;;;;35.63;32.33;100427.25;30592215;28;108401;-70
2023/08/17 13:11:25;;;;;;;7.00;3.03;;;;;;;35.33;33.07;100389.28;30591822;28;97207;-76
2023/08/17 13:26:26;;;;;;;3.13;2.65;;;;;;;35.06;34.17;100394.09;30596172;28;96874;-68
2023/08/17 13:41:26;;;;;;;3.47;3.17;;;;;;;34.91;33.63;100405.69;30628934;28;109815;-68
2023/08/17 13:56:26;;;;;;;7.93;4.13;;;;;;;34.46;33.94;100422.66;30629394;28;111781;-74
2023/08/17 14:11:27;;;;;;;4.47;3.40;;;;;;;33.76;35.65;100439.94;30629980;28;97249;-71
2023/08/17 14:26:27;;;;;;;7.80;3.47;;;;;;;33.26;36.66;100424.50;30626932;28;98600;-66
2023/08/17 14:41:31;;;;;;;7.72;3.65;;;;;;;33.07;37.14;100433.78;30617001;28;102454;-66
2023/08/17 14:56:32;;;;;;;6.77;2.53;;;;;;;32.08;37.03;100518.25;30604027;28;97452;-67
2023/08/17 15:11:32;;;;;;;7.30;2.50;;;;;;;27.40;41.52;100532.91;30596566;28;96769;-69
2023/08/17 15:26:32;;;;;;;10.85;3.58;;;;;;;25.47;48.16;100548.81;30596192;28;102115;-68
2023/08/17 15:41:33;;;;;;;4.45;3.00;;;;;;;23.98;53.46;100512.59;30586531;28;107803;-68
2023/08/17 15:56:33;;;;;;;9.43;3.40;;;;;;;23.82;56.11;100487.09;30591106;28;107586;-67
2023/08/17 16:11:33;;;;;;;5.18;3.60;;;;;;;23.40;57.40;100475.84;30590115;28;101786;-67
2023/08/17 16:26:34;;;;;;;5.45;4.13;;;;;;;23.13;59.49;100452.09;30589785;28;115453;-68
2023/08/17 16:41:34;;;;;;;8.02;4.38;;;;;;;23.05;61.43;100431.53;30587815;28;117170;-67
2023/08/17 16:56:34;;;;;;;5.85;4.35;;;;;;;22.61;62.19;100406.94;30587135;28;114991;-68
2023/08/17 17:11:35;;;;;;;;;;;;;;;22.52;63.30;100409.22;30585310;28;97181;-67
2023/08/17 17:26:36;;;;;;;7.33;4.80;;;;;;;22.48;64.16;100402.63;30586932;28;97362;-67
2023/08/17 17:41:36;;;;;;;5.70;4.70;;;;;;;22.61;64.62;100402.31;30584944;28;97764;-69
2023/08/17 17:56:40;;;;;;;;;;;;;;;22.43;65.07;100416.94;30515799;28;97344;-69
2023/08/17 18:11:41;;;;;;;9.03;4.53;;;;;;;22.32;65.51;100434.03;30464087;28;97633;-70
2023/08/17 18:26:41;;;;;;;;;;;;;;;22.20;65.99;100441.41;30481986;28;100442;-68
2023/08/17 18:41:41;;;;;;;7.57;4.00;;;;;;;21.95;66.59;100437.97;30482451;28;96743;-68
2023/08/17 18:56:41;;;;;;;10.75;5.75;;;;;;;21.76;67.38;100434.59;30586164;28;115383;-68
2023/08/17 19:11:42;;;;;;;7.70;5.28;;;;;;;21.67;68.08;100449.56;30591267;28;99887;-68
2023/08/17 19:26:42;;;;;;;6.03;4.50;;;;;;;21.63;68.45;100451.09;30603357;28;96844;-69
2023/08/17 19:41:44;;;;;;;11.75;5.25;;;;;;;21.60;68.69;100441.56;30602803;28;98261;-68
2023/08/17 19:56:44;;;;;;;15.43;6.70;;;;;;;22.20;68.97;100452.25;30598947;28;97552;-68
2023/08/17 20:11:45;;;;;;;9.35;4.85;;;;;;;22.71;67.89;100447.81;30596832;28;97409;-67
2023/08/17 20:26:45;;;;;;;;;;;;;;;22.57;66.47;100431.03;30595862;28;105589;-68
2023/08/17 20:41:46;;;;;;;7.00;4.73;;;;;;;22.73;66.75;100437.56;30599497;28;97356;-68
2023/08/17 20:56:46;;;;;;;;;;;;;;;22.50;66.10;100424.09;30599080;28;97159;-68
2023/08/17 21:11:46;;;;;;;6.87;4.73;;;;;;;22.53;66.16;100443.44;30552713;28;97216;-69
2023/08/17 21:26:46;;;;;;;11.77;5.88;;;;;;;21.96;66.75;100434.16;30469304;28;97343;-68
2023/08/17 21:41:47;;;;;;;9.30;5.63;;;;;;;21.95;67.14;100447.97;30465323;28;107799;-69
2023/08/17 21:56:47;;;;;;;8.82;5.50;;;;;;;21.29;68.27;100458.97;30482275;28;97371;-68
2023/08/17 22:11:47;;;;;;;10.13;6.47;;;;;;;20.77;70.78;100475.84;30499555;28;113119;-68
2023/08/17 22:26:48;;;;;;;7.90;6.77;;;;;;;20.48;72.20;100448.53;30607049;28;98410;-68
2023/08/17 22:41:48;;;;;;;10.27;7.13;;;;;;;20.87;72.31;100459.03;30611447;28;96752;-68
2023/08/17 22:56:48;;;;;;;10.07;8.00;;;;;;;20.31;72.26;100498.91;30611016;28;111844;-68
2023/08/17 23:11:49;;;;;;;9.30;7.30;;;;;;;19.92;73.49;100497.28;30608017;28;100830;-69
2023/08/17 23:26:49;;;;;;;12.47;8.07;;;;;;;19.70;74.27;100504.16;30607132;28;100383;-69
2023/08/17 23:41:49;;;;;;;8.93;6.50;;;;;;;19.40;74.88;100494.03;30604442;28;97668;-69
2023/08/17 23:56:50;;;;;;;10.23;6.70;;;;;;;19.30;75.51;100469.38;30604467;28;97569;-68
